Time;durP1;ratioP1;P1;durP2;ratioP2;P2;SDS_P1;SDS_P2;PMS_P1;PMS_P2;Temp;Humidity;BMP_temperature;BMP_pressure;BME280_temperature;BME280_humidity;BME280_pressure;Samples;Min_cycle;Max_cycle;Signal;HPM_P1;HPM_P2
2021/12/17 00:01:05;;;;;;;15.57;7.90;;;;;;;-145.42;47.87;46247.31;4973038;28;20136;-48
2021/12/17 00:03:38;;;;;;;13.63;8.07;;;;;;;-145.42;47.96;46229.91;4975797;28;20081;-49
2021/12/17 00:08:38;;;;;;;16.00;8.00;;;;;;;-145.42;47.94;46239.56;4975193;28;20121;-45
2021/12/17 00:11:05;;;;;;;15.73;8.23;;;;;;;-145.42;47.99;46245.38;4969921;28;20137;-45
2021/12/17 00:13:31;;;;;;;15.75;8.40;;;;;;;-145.42;48.06;46237.66;4971263;28;20046;-47
2021/12/17 00:15:57;;;;;;;16.00;8.45;;;;;;;-145.42;47.92;46202.84;4973849;28;20049;-48
2021/12/17 00:18:36;;;;;;;15.30;7.82;;;;;;;-145.42;47.88;46249.25;4960736;28;20178;-48
2021/12/17 00:43:56;;;;;;;10.82;6.88;;;;;;;-145.42;47.88;46241.50;4966757;28;20058;-45
2021/12/17 00:48:47;;;;;;;10.98;6.95;;;;;;;-145.42;48.00;46226.03;4969134;28;20518;-44
2021/12/17 00:51:55;;;;;;;14.52;7.10;;;;;;;-145.42;48.05;46249.25;4970833;28;20046;-48
2021/12/17 00:54:30;;;;;;;10.45;6.72;;;;;;;-145.42;48.05;46247.31;4971241;28;20034;-47
2021/12/17 00:56:58;;;;;;;12.75;6.80;;;;;;;-145.42;48.06;46245.38;4972898;28;20046;-44
2021/12/17 00:59:25;;;;;;;11.50;6.10;;;;;;;-145.42;47.89;46220.25;4973299;28;20039;-45
2021/12/17 01:01:54;;;;;;;11.32;6.85;;;;;;;-145.42;47.87;46226.03;4970681;28;20465;-45
2021/12/17 01:04:20;;;;;;;11.30;7.13;;;;;;;-145.42;48.03;46206.72;4969164;28;20043;-45
2021/12/17 01:06:47;;;;;;;12.73;6.97;;;;;;;-145.42;47.99;46245.38;4968738;28;20046;-45
2021/12/17 01:09:16;;;;;;;11.13;5.90;;;;;;;-145.42;48.05;46255.03;4970560;28;20726;-47
2021/12/17 01:11:42;;;;;;;12.48;6.72;;;;;;;-145.42;48.03;46241.50;4968159;28;20047;-45
2021/12/17 01:14:09;;;;;;;9.75;6.20;;;;;;;-145.42;48.06;46226.03;4968827;28;20108;-45
2021/12/17 01:16:35;;;;;;;10.85;6.07;;;;;;;-145.42;47.95;46218.31;4969348;28;20121;-43
2021/12/17 01:40:52;;;;;;;10.38;5.55;;;;;;;-145.42;48.01;46208.66;4972267;28;20066;-45
2021/12/17 01:43:07;;;;;;;9.50;6.05;;;;;;;-145.42;47.86;46210.56;4969999;28;20433;-45
2021/12/17 01:45:37;;;;;;;8.00;5.55;;;;;;;-145.42;47.92;46218.31;4969417;28;20042;-42
2021/12/17 01:48:08;;;;;;;10.45;6.15;;;;;;;-145.42;47.84;46229.91;4967588;28;20637;-44
2021/12/17 02:01:19;;;;;;;8.98;5.70;;;;;;;-145.42;48.01;46216.38;4969167;28;20057;-47
2021/12/17 02:03:44;;;;;;;8.40;5.22;;;;;;;-145.42;47.90;46245.38;4970388;28;20502;-46
2021/12/17 02:06:10;;;;;;;11.63;5.63;;;;;;;-145.42;47.90;46237.66;4967169;28;20043;-45
2021/12/17 02:08:36;;;;;;;7.70;5.03;;;;;;;-145.42;48.00;46243.44;4968963;28;20031;-45
2021/12/17 02:19:44;;;;;;;7.78;5.35;;;;;;;-145.42;48.03;46247.31;4970137;28;20058;-43
2021/12/17 02:30:57;;;;;;;7.82;4.95;;;;;;;-145.42;47.94;46235.72;4969927;28;20532;-47
2021/12/17 02:33:23;;;;;;;8.82;4.90;;;;;;;-145.42;47.97;46239.56;4973810;28;20039;-46
2021/12/17 02:35:49;;;;;;;8.05;4.72;;;;;;;-145.42;47.90;46191.25;4970575;28;20037;-46
2021/12/17 02:38:16;;;;;;;8.82;4.75;;;;;;;-145.42;47.81;46191.25;4968455;28;20042;-44
2021/12/17 02:46:12;;;;;;;7.78;4.80;;;;;;;-145.42;47.87;46204.78;4972419;28;20045;-44
2021/12/17 02:48:41;;;;;;;6.57;4.15;;;;;;;-145.42;47.85;46208.66;4968057;28;20034;-44
2021/12/17 02:51:07;;;;;;;6.78;4.55;;;;;;;-145.42;47.75;46243.44;4970708;28;20437;-43
2021/12/17 02:53:32;;;;;;;6.70;4.35;;;;;;;-145.42;47.85;46229.91;4969309;28;20049;-47
2021/12/17 02:56:03;;;;;;;6.03;4.13;;;;;;;-145.42;47.85;46249.25;4968423;28;20053;-45
2021/12/17 02:58:31;;;;;;;9.55;5.38;;;;;;;-145.42;47.74;46218.31;4982881;28;20034;-45
2021/12/17 03:00:58;;;;;;;7.57;4.65;;;;;;;-145.42;47.89;46214.44;4989053;28;20045;-47
2021/12/17 03:03:27;;;;;;;7.28;4.57;;;;;;;-145.42;47.82;46210.56;4972915;28;20046;-45
2021/12/17 03:05:54;;;;;;;6.40;4.40;;;;;;;-145.42;47.78;46227.97;4974474;28;20045;-44
2021/12/17 03:08:20;;;;;;;5.57;3.95;;;;;;;-145.42;47.58;46193.19;4970527;28;20053;-46
2021/12/17 03:10:48;;;;;;;6.28;3.67;;;;;;;-145.42;47.82;46210.56;4974506;28;20058;-48
2021/12/17 03:13:16;;;;;;;6.07;4.20;;;;;;;-145.42;47.66;46233.78;4970614;28;20121;-46
2021/12/17 03:15:49;;;;;;;8.25;4.45;;;;;;;-145.42;47.77;46218.31;4973467;28;20042;-45
2021/12/17 03:18:48;;;;;;;6.13;4.03;;;;;;;-145.42;47.80;46169.97;4972267;28;20786;-46
2021/12/17 03:23:48;;;;;;;5.65;4.10;;;;;;;-145.42;47.75;46233.78;4974234;28;19928;-44
2021/12/17 03:26:16;;;;;;;7.38;4.22;;;;;;;-145.42;47.76;46208.66;4974047;28;20122;-45
2021/12/17 03:28:46;;;;;;;6.45;4.13;;;;;;;-145.42;47.72;46255.03;4974128;28;20593;-44
2021/12/17 03:31:12;;;;;;;6.65;3.92;;;;;;;-145.42;47.73;46239.56;4970873;28;20038;-46
2021/12/17 03:33:42;;;;;;;6.03;4.10;;;;;;;-145.42;47.83;46255.03;4972615;28;20051;-46
2021/12/17 03:36:14;;;;;;;5.78;3.63;;;;;;;-145.42;47.82;46202.84;4974908;28;20045;-46
2021/12/17 03:38:41;;;;;;;4.55;3.60;;;;;;;-145.42;47.72;46245.38;4970880;28;20046;-47
2021/12/17 03:41:18;;;;;;;5.97;4.05;;;;;;;-145.42;47.78;46233.78;4973181;28;20042;-47
2021/12/17 03:43:45;;;;;;;5.75;4.13;;;;;;;-145.42;47.65;46229.91;4970869;28;20074;-45
2021/12/17 03:46:11;;;;;;;5.43;3.65;;;;;;;-145.42;47.64;46164.19;4973998;28;20121;-46
2021/12/17 03:48:39;;;;;;;7.00;3.70;;;;;;;-145.42;47.71;46233.78;4971075;28;20050;-46
2021/12/17 03:51:11;;;;;;;5.25;3.75;;;;;;;-145.42;47.67;46239.56;4972575;28;20046;-47
2021/12/17 03:53:37;;;;;;;4.97;3.53;;;;;;;-145.42;47.77;46226.03;4972592;28;20043;-47
2021/12/17 03:56:03;;;;;;;5.22;3.30;;;;;;;-145.42;47.74;46256.97;4971598;28;20131;-47
2021/12/17 03:58:29;;;;;;;5.28;3.25;;;;;;;-145.42;47.65;46218.31;4990916;28;20038;-46
2021/12/17 04:00:55;;;;;;;5.55;3.88;;;;;;;-145.42;47.72;46208.66;4972881;28;20050;-46
2021/12/17 04:03:20;;;;;;;6.30;3.58;;;;;;;-145.42;47.67;46206.72;4969849;28;20043;-46
2021/12/17 04:05:46;;;;;;;6.30;3.97;;;;;;;-145.42;47.58;46226.03;4973520;28;20031;-44
2021/12/17 04:08:12;;;;;;;6.05;3.50;;;;;;;-145.42;47.58;46214.44;4970318;28;20816;-47
2021/12/17 04:10:43;;;;;;;7.43;3.80;;;;;;;-145.42;47.71;46266.63;4971755;28;20043;-46
2021/12/17 04:13:43;;;;;;;5.05;3.80;;;;;;;-145.42;47.59;46204.78;4973229;28;20506;-48
2021/12/17 04:16:10;;;;;;;4.53;3.63;;;;;;;-145.42;47.66;46239.56;4975436;28;20050;-47
2021/12/17 04:18:41;;;;;;;4.53;3.63;;;;;;;-145.42;47.54;46189.31;4971136;28;20039;-45
2021/12/17 04:21:15;;;;;;;3.72;2.90;;;;;;;-145.42;47.47;46183.50;4975643;28;20039;-47
2021/12/17 04:23:42;;;;;;;5.05;3.80;;;;;;;-145.42;47.62;46200.91;4972474;28;20043;-45
2021/12/17 04:26:08;;;;;;;4.68;2.95;;;;;;;-145.42;47.68;46239.56;4971883;28;20039;-47
2021/12/17 04:28:37;;;;;;;5.45;3.25;;;;;;;-145.42;47.60;46208.66;4970737;28;20035;-47
2021/12/17 04:31:02;;;;;;;4.22;2.83;;;;;;;-145.42;47.64;46220.25;4971952;28;20075;-45
2021/12/17 04:33:28;;;;;;;6.18;3.92;;;;;;;-145.42;47.64;46227.97;4969390;28;20119;-46
2021/12/17 04:35:54;;;;;;;5.78;3.70;;;;;;;-145.42;47.49;46224.09;4974051;28;20049;-47
2021/12/17 04:38:22;;;;;;;4.65;3.30;;;;;;;-145.42;47.71;46249.25;4968342;28;20039;-45
2021/12/17 04:40:50;;;;;;;4.22;3.13;;;;;;;-145.42;47.59;46202.84;4972231;28;20031;-47
2021/12/17 04:43:34;;;;;;;5.00;3.28;;;;;;;-145.42;47.59;46243.44;4970391;28;20061;-45
2021/12/17 04:46:15;;;;;;;5.60;3.45;;;;;;;-145.42;47.53;46210.56;4971907;28;20046;-46
2021/12/17 04:59:39;;;;;;;5.03;3.20;;;;;;;-145.42;47.45;46177.72;4974804;28;20121;-46
2021/12/17 05:02:04;;;;;;;3.92;3.20;;;;;;;-145.42;47.45;46220.25;4970090;28;20473;-45
2021/12/17 05:04:30;;;;;;;4.05;2.92;;;;;;;-145.42;47.41;46214.44;4971038;28;20046;-47
2021/12/17 05:06:56;;;;;;;3.47;2.78;;;;;;;-145.42;47.54;46233.78;4972664;28;20068;-42
2021/12/17 05:10:12;;;;;;;5.07;2.97;;;;;;;-145.42;47.64;46218.31;4968542;28;20057;-46
2021/12/17 05:20:26;;;;;;;3.42;2.78;;;;;;;-145.42;47.36;46208.66;4970759;28;20049;-46
2021/12/17 05:22:55;;;;;;;4.85;3.25;;;;;;;-145.42;47.47;46233.78;4973505;28;20057;-46
2021/12/17 05:25:21;;;;;;;4.72;3.28;;;;;;;-145.42;47.44;46245.38;4969998;28;20042;-44
2021/12/17 05:27:47;;;;;;;4.57;2.95;;;;;;;-145.42;47.63;46226.03;4969372;28;20461;-45
2021/12/17 05:30:13;;;;;;;3.40;2.78;;;;;;;-145.42;47.49;46226.03;4971128;28;20062;-45
2021/12/17 05:32:39;;;;;;;3.47;2.70;;;;;;;-145.42;47.56;46237.66;4968700;28;20039;-45
2021/12/17 05:35:05;;;;;;;5.13;2.45;;;;;;;-145.42;47.53;46231.84;4972105;28;20549;-45
2021/12/17 05:37:31;;;;;;;5.07;3.33;;;;;;;-145.42;47.48;46227.97;4969784;28;20130;-46
2021/12/17 05:39:56;;;;;;;2.78;2.45;;;;;;;-145.42;47.47;46189.31;4969420;28;20042;-48
2021/12/17 05:42:23;;;;;;;4.13;3.00;;;;;;;-145.42;47.70;46220.25;4974444;28;20402;-46
2021/12/17 05:44:52;;;;;;;2.95;2.75;;;;;;;-145.42;47.52;46231.84;4970654;28;20034;-47
2021/12/17 05:47:18;;;;;;;4.05;2.90;;;;;;;-145.42;47.42;46206.72;4971153;28;20046;-46
2021/12/17 05:49:44;;;;;;;3.85;2.47;;;;;;;-145.42;47.42;46191.25;4970504;28;20418;-45
2021/12/17 05:52:10;;;;;;;4.35;2.38;;;;;;;-145.42;47.31;46218.31;4968701;28;20130;-48
2021/12/17 05:54:36;;;;;;;2.60;2.25;;;;;;;-145.42;47.56;46179.66;4970792;28;20043;-46
2021/12/17 05:57:02;;;;;;;3.45;2.85;;;;;;;-145.42;47.44;46224.09;4977125;28;20739;-46
2021/12/17 05:59:33;;;;;;;3.90;2.40;;;;;;;-145.42;47.43;46218.31;4978138;28;20031;-47
2021/12/17 06:02:01;;;;;;;3.60;2.70;;;;;;;-145.42;47.38;46212.50;4985298;28;20425;-44
2021/12/17 06:04:26;;;;;;;3.22;2.55;;;;;;;-145.42;47.54;46241.50;4978221;28;20422;-47
2021/12/17 06:06:52;;;;;;;3.10;2.17;;;;;;;-145.42;47.36;46251.19;4979216;28;20369;-49
2021/12/17 06:09:18;;;;;;;4.05;2.45;;;;;;;-145.42;47.45;46212.50;4979662;28;20125;-46
2021/12/17 06:11:44;;;;;;;3.53;2.58;;;;;;;-145.42;47.44;46233.78;4978461;28;20036;-46
2021/12/17 06:14:10;;;;;;;2.70;2.35;;;;;;;-145.42;47.45;46266.63;4979673;28;20097;-46
2021/12/17 06:16:36;;;;;;;3.65;2.33;;;;;;;-145.42;47.64;46200.91;4977896;28;20137;-48
2021/12/17 06:19:02;;;;;;;3.45;2.53;;;;;;;-145.42;47.39;46187.38;4979062;28;20058;-46
2021/12/17 06:21:28;;;;;;;2.78;2.20;;;;;;;-145.42;47.44;46216.38;4980131;28;20061;-46
2021/12/17 06:23:54;;;;;;;3.17;2.50;;;;;;;-145.42;47.72;46235.72;4978428;28;20034;-46
2021/12/17 06:26:20;;;;;;;4.35;2.83;;;;;;;-145.42;47.52;46245.38;4979610;28;20042;-47
2021/12/17 06:28:50;;;;;;;3.65;2.40;;;;;;;-145.42;47.62;46243.44;4978042;28;20072;-48
2021/12/17 06:31:17;;;;;;;3.55;2.70;;;;;;;-145.42;47.52;46241.50;4979580;28;20127;-46
2021/12/17 06:33:42;;;;;;;4.25;2.15;;;;;;;-145.42;47.52;46227.97;4984047;28;20094;-46
2021/12/17 06:36:08;;;;;;;2.20;1.95;;;;;;;-145.42;47.60;46226.03;4981170;28;20133;-49
2021/12/17 06:38:34;;;;;;;3.15;2.50;;;;;;;-145.42;47.55;46224.09;4985453;28;20185;-45
2021/12/17 06:41:00;;;;;;;3.95;2.65;;;;;;;-145.42;47.47;46206.72;4982336;28;20047;-46
2021/12/17 06:43:33;;;;;;;3.70;2.15;;;;;;;-145.42;47.56;46202.84;4979352;28;20039;-48
2021/12/17 06:46:15;;;;;;;4.05;2.42;;;;;;;-145.42;47.65;46214.44;4981674;28;20054;-46
2021/12/17 06:48:41;;;;;;;3.92;2.35;;;;;;;-145.42;47.57;46235.72;4982048;28;20125;-46
2021/12/17 06:57:26;;;;;;;3.90;2.40;;;;;;;-145.42;47.52;46204.78;4985640;28;20093;-46
2021/12/17 06:59:37;;;;;;;3.90;2.42;;;;;;;-145.42;47.47;46214.44;4979809;28;21015;-48
2021/12/17 07:10:27;;;;;;;3.42;2.40;;;;;;;-145.42;47.62;46220.25;4982286;28;20046;-46
2021/12/17 07:17:12;;;;;;;3.45;2.55;;;;;;;-145.42;47.52;46262.78;4979352;28;20046;-46
2021/12/17 07:29:55;;;;;;;2.65;2.03;;;;;;;-145.42;47.50;46218.31;4984310;28;20053;-48
2021/12/17 07:34:42;;;;;;;2.85;1.80;;;;;;;-145.42;47.64;46227.97;4983905;28;20132;-49
2021/12/17 07:39:34;;;;;;;3.20;2.15;;;;;;;-145.42;47.60;46233.78;4984222;28;20486;-45
2021/12/17 07:41:59;;;;;;;2.60;2.10;;;;;;;-145.42;47.70;46191.25;4983712;28;20124;-47
2021/12/17 07:44:25;;;;;;;3.58;2.38;;;;;;;-145.42;47.53;46241.50;4982337;28;20453;-45
2021/12/17 07:46:51;;;;;;;3.40;2.30;;;;;;;-145.42;47.50;46229.91;4984265;28;20035;-46
2021/12/17 07:49:17;;;;;;;4.40;2.47;;;;;;;-145.42;47.61;46200.91;4982763;28;20097;-46
2021/12/17 07:51:43;;;;;;;3.67;2.10;;;;;;;-145.42;47.75;46222.19;4984039;28;20493;-47
2021/12/17 07:54:08;;;;;;;3.80;2.35;;;;;;;-145.42;47.63;46231.84;4983201;28;20038;-47
2021/12/17 07:56:37;;;;;;;2.70;1.90;;;;;;;-145.42;47.71;46214.44;4982969;28;20041;-47
2021/12/17 07:59:07;;;;;;;3.97;2.25;;;;;;;-145.42;47.66;46233.78;4983525;28;20038;-47
2021/12/17 08:01:35;;;;;;;3.70;2.22;;;;;;;-145.42;47.39;46229.91;4980910;28;20044;-49
2021/12/17 08:04:00;;;;;;;3.83;2.58;;;;;;;-145.42;47.55;46266.63;4981393;28;20047;-47
2021/12/17 08:06:26;;;;;;;2.30;2.10;;;;;;;-145.42;47.82;46247.31;4983588;28;20724;-46
2021/12/17 08:08:52;;;;;;;4.07;2.15;;;;;;;-145.42;47.51;46187.38;4982775;28;20037;-45
2021/12/17 08:11:18;;;;;;;5.57;2.45;;;;;;;-145.42;47.29;46212.50;4982409;28;20066;-46
2021/12/17 08:13:46;;;;;;;5.15;2.67;;;;;;;-145.42;47.02;46229.91;4983299;28;20429;-45
